Time;durP1;ratioP1;P1;durP2;ratioP2;P2;SDS_P1;SDS_P2;PMS_P1;PMS_P2;Temp;Humidity;BMP_temperature;BMP_pressure;BME280_temperature;BME280_humidity;BME280_pressure;Samples;Min_cycle;Max_cycle;Signal;HPM_P1;HPM_P2
2023/01/24 06:55:05;;;;;;;4.43;3.28;;;;;;;;;;10497843;28;20408;-78
2023/01/24 07:00:06;;;;;;;7.13;4.57;;;;;;;;;;10498064;28;20032;-78
2023/01/24 07:05:07;;;;;;;5.55;3.75;;;;;;;;;;10499966;28;20043;-78
2023/01/24 07:10:09;;;;;;;6.55;4.47;;;;;;;;;;10517494;28;20031;-78
2023/01/24 07:15:10;;;;;;;3.85;3.15;;;;;;;;;;10509349;28;20071;-77
2023/01/24 07:20:12;;;;;;;5.75;4.25;;;;;;;;;;10530409;28;20021;-77
2023/01/24 07:25:14;;;;;;;8.68;5.85;;;;;;;;;;10525781;28;20021;-78
2023/01/24 07:30:15;;;;;;;4.53;3.28;;;;;;;;;;10499796;28;20017;-78
2023/01/24 07:35:16;;;;;;;6.25;4.88;;;;;;;;;;10495423;28;20036;-78
2023/01/24 07:40:17;;;;;;;5.72;4.40;;;;;;;;;;10495951;28;20027;-79
2023/01/24 07:45:20;;;;;;;4.18;2.85;;;;;;;;;;10495852;28;20120;-79
2023/01/24 07:50:21;;;;;;;4.03;3.22;;;;;;;;;;10517289;28;20021;-77
2023/01/24 07:55:23;;;;;;;8.82;3.40;;;;;;;;;;10509614;28;20033;-79
2023/01/24 08:00:24;;;;;;;4.75;3.13;;;;;;;;;;10494464;28;20046;-79
2023/01/24 08:05:25;;;;;;;4.82;2.58;;;;;;;;;;10472118;28;20021;-79
2023/01/24 08:10:26;;;;;;;5.55;3.50;;;;;;;;;;10469701;28;20166;-79
2023/01/24 08:15:27;;;;;;;;;;;;;;;;;;10474929;28;20035;-79
2023/01/24 08:20:29;;;;;;;6.82;4.32;;;;;;;;;;10475637;28;20232;-79
2023/01/24 08:25:31;;;;;;;7.82;5.20;;;;;;;;;;10474124;28;20029;-79
2023/01/24 08:30:32;;;;;;;6.70;4.97;;;;;;;;;;10471751;28;20032;-79
2023/01/24 08:35:33;;;;;;;6.47;5.28;;;;;;;;;;10468861;28;20124;-79
2023/01/24 08:40:34;;;;;;;;;;;;;;;;;;10468742;28;20417;-78
2023/01/24 08:45:35;;;;;;;7.35;5.28;;;;;;;;;;10469442;28;19913;-79
2023/01/24 08:50:36;;;;;;;8.10;6.22;;;;;;;;;;10467690;28;20033;-79
2023/01/24 08:55:37;;;;;;;7.53;4.85;;;;;;;;;;10468338;28;20471;-79
2023/01/24 09:00:38;;;;;;;8.75;5.65;;;;;;;;;;10466381;28;20123;-79
2023/01/24 09:05:39;;;;;;;8.48;6.82;;;;;;;;;;10469509;28;20474;-78
2023/01/24 09:10:40;;;;;;;8.85;6.53;;;;;;;;;;10470919;28;20479;-78
2023/01/24 09:15:42;;;;;;;7.00;5.32;;;;;;;;;;10467739;28;20116;-79
2023/01/24 09:20:43;;;;;;;;;;;;;;;;;;10466237;28;20194;-80
2023/01/24 09:25:50;;;;;;;8.63;5.65;;;;;;;;;;10463939;28;19934;-80
2023/01/24 09:30:51;;;;;;;9.15;6.82;;;;;;;;;;10465093;28;20036;-81
2023/01/24 09:35:59;;;;;;;14.88;10.60;;;;;;;;;;10465634;28;20036;-82
2023/01/24 09:41:04;;;;;;;8.88;5.25;;;;;;;;;;10473448;28;20112;-79
2023/01/24 09:46:12;;;;;;;15.20;11.32;;;;;;;;;;10466258;28;20032;-79
2023/01/24 09:51:16;;;;;;;15.90;11.32;;;;;;;;;;10463404;28;20052;-80
2023/01/24 09:56:30;;;;;;;11.70;6.07;;;;;;;;;;10471242;28;20028;-79
2023/01/24 10:01:31;;;;;;;13.27;8.30;;;;;;;;;;10478702;28;20419;-78
2023/01/24 10:06:35;;;;;;;11.98;6.75;;;;;;;;;;10467743;28;20124;-79
2023/01/24 10:11:55;;;;;;;12.60;7.68;;;;;;;;;;10461699;28;20041;-79
2023/01/24 10:17:16;;;;;;;12.02;8.48;;;;;;;;;;10462716;28;20466;-78
2023/01/24 10:22:52;;;;;;;11.40;7.45;;;;;;;;;;10461878;28;20032;-79
2023/01/24 10:27:57;;;;;;;7.78;5.93;;;;;;;;;;10419840;28;20025;-79
2023/01/24 10:33:03;;;;;;;9.07;7.30;;;;;;;;;;10461297;28;20426;-78
2023/01/24 10:38:07;;;;;;;11.35;7.97;;;;;;;;;;10460654;28;20021;-79
2023/01/24 10:43:08;;;;;;;13.70;8.93;;;;;;;;;;10467487;28;20119;-78
2023/01/24 10:48:28;;;;;;;10.65;8.00;;;;;;;;;;10471404;28;20491;-78
2023/01/24 10:53:29;;;;;;;9.13;6.65;;;;;;;;;;10476502;28;20040;-80
2023/01/24 10:58:33;;;;;;;8.65;7.20;;;;;;;;;;10468180;28;20027;-81
2023/01/24 11:03:38;;;;;;;7.70;5.28;;;;;;;;;;10472546;28;20080;-81
2023/01/24 11:08:39;;;;;;;15.57;11.55;;;;;;;;;;10474433;28;20074;-82
2023/01/24 11:13:41;;;;;;;9.65;8.10;;;;;;;;;;10473354;28;20065;-82
2023/01/24 11:18:42;;;;;;;;;;;;;;;;;;10470973;28;20037;-80
2023/01/24 11:23:43;;;;;;;13.70;10.77;;;;;;;;;;10465899;28;19909;-81
2023/01/24 11:28:44;;;;;;;7.95;5.40;;;;;;;;;;10465506;28;20029;-82
2023/01/24 11:33:54;;;;;;;9.18;6.75;;;;;;;;;;10467197;28;20469;-82
2023/01/24 11:38:57;;;;;;;8.63;7.07;;;;;;;;;;10474230;28;20017;-82
2023/01/24 11:43:59;;;;;;;8.18;4.95;;;;;;;;;;10480474;28;20029;-81
2023/01/24 11:49:00;;;;;;;8.23;6.40;;;;;;;;;;10477125;28;20166;-81
2023/01/24 11:54:04;;;;;;;8.07;6.03;;;;;;;;;;10473792;28;20033;-81
2023/01/24 11:59:08;;;;;;;5.80;4.68;;;;;;;;;;10474722;28;20059;-80
2023/01/24 12:04:12;;;;;;;8.95;5.20;;;;;;;;;;10474006;28;20124;-82
2023/01/24 12:09:17;;;;;;;7.85;6.82;;;;;;;;;;10477228;28;20096;-79
2023/01/24 12:14:27;;;;;;;7.00;5.50;;;;;;;;;;10490366;28;20052;-80
2023/01/24 12:19:43;;;;;;;9.07;6.22;;;;;;;;;;10482007;28;20049;-81
2023/01/24 12:24:47;;;;;;;12.45;9.80;;;;;;;;;;10470672;28;20101;-81
2023/01/24 12:29:59;;;;;;;6.32;5.22;;;;;;;;;;10466889;28;20053;-80
2023/01/24 12:35:21;;;;;;;6.13;5.03;;;;;;;;;;10465501;28;20036;-81
2023/01/24 12:40:24;;;;;;;8.98;6.15;;;;;;;;;;10471464;22;20046;-82
2023/01/24 12:45:25;;;;;;;6.95;5.28;;;;;;;;;;10419295;28;20112;-80
2023/01/24 12:50:42;;;;;;;10.02;7.15;;;;;;;;;;10419122;28;20022;-80
2023/01/24 12:55:49;;;;;;;14.02;12.63;;;;;;;;;;10423423;28;20026;-79
2023/01/24 13:00:59;;;;;;;12.13;9.13;;;;;;;;;;10422619;28;20118;-80
2023/01/24 13:06:03;;;;;;;12.80;9.35;;;;;;;;;;10412417;28;20026;-81
2023/01/24 13:11:17;;;;;;;10.30;8.90;;;;;;;;;;10409102;28;20038;-81
2023/01/24 13:16:21;;;;;;;10.68;9.00;;;;;;;;;;10409115;28;20053;-82
2023/01/24 13:21:25;;;;;;;8.50;6.60;;;;;;;;;;10408048;28;20030;-81
2023/01/24 13:26:29;;;;;;;10.50;7.47;;;;;;;;;;10411769;28;20033;-81
2023/01/24 13:31:34;;;;;;;9.00;8.05;;;;;;;;;;10405926;28;20034;-82
2023/01/24 13:36:37;;;;;;;6.88;5.85;;;;;;;;;;10400846;28;20034;-81
2023/01/24 13:41:38;;;;;;;7.25;5.70;;;;;;;;;;10402783;28;20054;-82
2023/01/24 13:46:45;;;;;;;10.82;9.27;;;;;;;;;;10404508;28;20026;-81
2023/01/24 13:51:49;;;;;;;9.80;8.77;;;;;;;;;;10399843;28;20049;-80
2023/01/24 13:57:09;;;;;;;10.30;7.07;;;;;;;;;;10401252;28;20030;-81
2023/01/24 14:02:27;;;;;;;10.70;8.50;;;;;;;;;;10403226;28;20026;-81
2023/01/24 14:07:29;;;;;;;13.65;9.55;;;;;;;;;;10393648;28;20384;-80
2023/01/24 14:12:38;;;;;;;11.88;8.63;;;;;;;;;;10394842;28;20076;-81
2023/01/24 14:17:39;;;;;;;13.15;9.75;;;;;;;;;;10391240;28;20093;-79
2023/01/24 14:22:44;;;;;;;12.77;10.70;;;;;;;;;;10388893;28;20037;-79
2023/01/24 14:27:58;;;;;;;9.88;8.50;;;;;;;;;;10393941;28;20068;-79
2023/01/24 14:33:13;;;;;;;14.85;13.25;;;;;;;;;;10394189;28;20373;-79
2023/01/24 14:38:16;;;;;;;9.00;7.93;;;;;;;;;;10387712;28;20092;-79
2023/01/24 14:43:17;;;;;;;8.75;7.85;;;;;;;;;;10386859;28;20026;-79
2023/01/24 14:48:28;;;;;;;8.85;7.68;;;;;;;;;;10388398;28;20053;-80
2023/01/24 14:53:30;;;;;;;10.07;7.95;;;;;;;;;;10388128;28;20109;-81
2023/01/24 14:58:31;;;;;;;11.07;9.57;;;;;;;;;;10388882;28;20038;-81
2023/01/24 15:03:35;;;;;;;15.48;12.77;;;;;;;;;;10386556;28;20480;-80
2023/01/24 15:08:36;;;;;;;16.40;11.50;;;;;;;;;;10388658;28;20026;-79
2023/01/24 15:13:43;;;;;;;13.15;10.73;;;;;;;;;;10389022;28;20033;-81
2023/01/24 15:18:49;;;;;;;11.88;8.93;;;;;;;;;;10396204;28;20089;-81
2023/01/24 15:23:58;;;;;;;8.00;6.63;;;;;;;;;;10398595;28;20084;-80
2023/01/24 15:29:19;;;;;;;10.70;7.72;;;;;;;;;;10400728;28;20053;-79
2023/01/24 15:34:20;;;;;;;12.60;9.10;;;;;;;;;;10393988;28;20049;-82
2023/01/24 15:39:21;;;;;;;8.55;6.88;;;;;;;;;;10390119;28;20129;-81
2023/01/24 15:44:23;;;;;;;7.70;6.40;;;;;;;;;;10387453;28;20033;-82
2023/01/24 15:49:25;;;;;;;9.52;6.32;;;;;;;;;;10390385;28;20074;-81
2023/01/24 15:54:28;;;;;;;11.07;9.77;;;;;;;;;;10390525;28;20061;-80
2023/01/24 15:59:29;;;;;;;10.93;8.55;;;;;;;;;;10388103;28;20029;-80
2023/01/24 16:04:32;;;;;;;12.05;9.60;;;;;;;;;;10386061;28;20429;-81
2023/01/24 16:09:33;;;;;;;10.60;8.20;;;;;;;;;;10386254;28;20480;-80
2023/01/24 16:14:34;;;;;;;;;;;;;;;;;;10392037;28;20026;-81
2023/01/24 16:19:35;;;;;;;11.88;9.50;;;;;;;;;;10402669;28;19935;-81
2023/01/24 16:24:36;;;;;;;10.73;7.80;;;;;;;;;;10415509;28;20034;-81
2023/01/24 16:29:37;;;;;;;11.82;10.18;;;;;;;;;;10417017;28;20029;-81
2023/01/24 16:34:38;;;;;;;11.52;9.85;;;;;;;;;;10419924;28;20515;-81
2023/01/24 16:39:40;;;;;;;18.45;15.20;;;;;;;;;;10387458;28;20085;-82
2023/01/24 16:44:41;;;;;;;13.50;12.02;;;;;;;;;;10390559;28;20022;-82
2023/01/24 16:49:42;;;;;;;;;;;;;;;;;;10391524;28;20045;-82
2023/01/24 16:54:43;;;;;;;10.90;8.75;;;;;;;;;;10390843;28;19974;-82
2023/01/24 16:59:46;;;;;;;11.25;9.27;;;;;;;;;;10388752;28;20057;-81
2023/01/24 17:04:50;;;;;;;11.85;9.15;;;;;;;;;;10388999;28;20029;-82
2023/01/24 17:09:51;;;;;;;11.43;8.95;;;;;;;;;;10387177;28;20117;-81
2023/01/24 17:14:52;;;;;;;10.38;9.38;;;;;;;;;;10394102;28;20040;-82
2023/01/24 17:19:53;;;;;;;9.88;7.15;;;;;;;;;;10394947;28;20096;-79
2023/01/24 17:24:54;;;;;;;13.43;11.50;;;;;;;;;;10405773;28;20050;-82
2023/01/24 17:29:56;;;;;;;13.88;12.43;;;;;;;;;;10395231;28;20057;-85
2023/01/24 17:34:57;;;;;;;13.60;12.15;;;;;;;;;;10394763;28;20033;-85
2023/01/24 17:39:58;;;;;;;9.80;8.70;;;;;;;;;;10400419;28;20127;-85
2023/01/24 17:45:02;;;;;;;16.35;11.77;;;;;;;;;;10395167;28;20037;-85
2023/01/24 17:50:03;;;;;;;11.63;10.40;;;;;;;;;;10387321;28;20033;-85
2023/01/24 17:55:04;;;;;;;10.27;9.27;;;;;;;;;;10387479;28;20033;-84
2023/01/24 18:00:06;;;;;;;;;;;;;;;;;;10387443;28;20101;-84
2023/01/24 18:05:08;;;;;;;13.82;12.30;;;;;;;;;;10384793;28;19909;-85
2023/01/24 18:10:09;;;;;;;;;;;;;;;;;;10385915;28;20041;-84
2023/01/24 18:15:10;;;;;;;13.13;11.47;;;;;;;;;;10392937;28;19976;-85
2023/01/24 18:20:11;;;;;;;15.55;12.63;;;;;;;;;;10386456;28;20268;-85
2023/01/24 18:25:13;;;;;;;12.63;11.32;;;;;;;;;;10387036;28;20032;-84
2023/01/24 18:30:13;;;;;;;;;;;;;;;;;;10389442;28;20036;-84
2023/01/24 18:35:15;;;;;;;15.43;12.80;;;;;;;;;;10389751;28;19912;-83
2023/01/24 18:40:16;;;;;;;13.07;9.85;;;;;;;;;;10363325;22;20133;-79
2023/01/24 18:45:17;;;;;;;11.65;10.45;;;;;;;;;;10340659;28;20065;-78
2023/01/24 18:50:18;;;;;;;11.02;9.93;;;;;;;;;;10339501;28;20042;-79
2023/01/24 18:55:19;;;;;;;17.25;13.77;;;;;;;;;;10339963;28;20125;-79
2023/01/24 19:00:21;;;;;;;10.93;9.82;;;;;;;;;;10337755;28;20132;-79
2023/01/24 19:05:22;;;;;;;8.85;7.63;;;;;;;;;;10337583;28;20038;-79
2023/01/24 19:10:23;;;;;;;10.13;8.98;;;;;;;;;;10336946;28;20471;-79
2023/01/24 19:15:24;;;;;;;10.98;9.70;;;;;;;;;;10337924;28;20452;-79
2023/01/24 19:20:26;;;;;;;11.23;9.18;;;;;;;;;;10337444;28;20034;-80
2023/01/24 19:25:26;;;;;;;;;;;;;;;;;;10339138;28;20200;-80
2023/01/24 19:30:27;;;;;;;8.55;7.63;;;;;;;;;;10340836;28;19906;-79
2023/01/24 19:35:28;;;;;;;6.95;6.20;;;;;;;;;;10339283;28;20061;-78
2023/01/24 19:40:30;;;;;;;7.38;6.50;;;;;;;;;;10334329;28;20048;-79
2023/01/24 19:45:31;;;;;;;;;;;;;;;;;;10335824;28;20077;-79
2023/01/24 19:50:32;;;;;;;10.80;9.68;;;;;;;;;;10336582;28;19936;-80
2023/01/24 19:55:34;;;;;;;8.93;7.95;;;;;;;;;;10337241;28;20132;-80
2023/01/24 20:00:36;;;;;;;12.57;10.05;;;;;;;;;;10347597;28;20041;-80
2023/01/24 20:05:37;;;;;;;;;;;;;;;;;;10351890;28;20034;-79
2023/01/24 20:10:39;;;;;;;10.95;9.85;;;;;;;;;;10345358;28;19906;-79
2023/01/24 20:15:40;;;;;;;12.00;10.75;;;;;;;;;;10345450;28;20035;-80
